Time;durP1;ratioP1;P1;durP2;ratioP2;P2;SDS_P1;SDS_P2;PMS_P1;PMS_P2;Temp;Humidity;BMP_temperature;BMP_pressure;BME280_temperature;BME280_humidity;BME280_pressure;Samples;Min_cycle;Max_cycle;Signal;HPM_P1;HPM_P2
2023/07/31 00:04:06;;;;;;;1.50;1.20;;;25.80;59.20;;;;;;219364;1283;23623;-45
2023/07/31 00:09:11;;;;;;;1.40;1.10;;;25.80;59.30;;;;;;219060;1279;25476;-46
2023/07/31 00:14:22;;;;;;;1.60;1.00;;;25.90;59.10;;;;;;219333;1280;24360;-48
2023/07/31 00:19:26;;;;;;;0.90;0.90;;;25.90;59.20;;;;;;219458;1283;22537;-45
2023/07/31 00:24:30;;;;;;;0.80;0.80;;;26.00;59.10;;;;;;219329;1287;22553;-47
2023/07/31 00:29:35;;;;;;;3.00;1.20;;;26.00;59.00;;;;;;219479;1285;23912;-48
2023/07/31 00:34:40;;;;;;;1.10;1.00;;;25.90;59.20;;;;;;219463;1274;26212;-46
2023/07/31 00:39:44;;;;;;;2.40;1.10;;;25.90;59.30;;;;;;219427;1287;22627;-48
2023/07/31 00:44:49;;;;;;;1.20;0.90;;;25.90;59.30;;;;;;219563;1284;24259;-47
2023/07/31 00:49:53;;;;;;;1.20;0.90;;;25.90;59.20;;;;;;219418;1280;23521;-44
2023/07/31 00:54:57;;;;;;;1.50;1.40;;;25.80;59.40;;;;;;219435;1280;22653;-46
2023/07/31 01:00:03;;;;;;;1.40;1.10;;;25.80;59.70;;;;;;219359;1280;23950;-47
2023/07/31 01:05:07;;;;;;;1.40;1.30;;;25.70;59.30;;;;;;219530;1280;25493;-47
2023/07/31 01:10:20;;;;;;;1.60;1.20;;;25.70;59.30;;;;;;219489;1283;22547;-46
2023/07/31 01:15:24;;;;;;;1.00;0.90;;;25.70;59.40;;;;;;219487;1280;23001;-47
2023/07/31 01:20:30;;;;;;;1.20;1.20;;;25.70;60.00;;;;;;219512;1286;22539;-49
2023/07/31 01:25:56;;;;;;;1.20;1.10;;;25.70;60.20;;;;;;219481;1280;25306;-48
2023/07/31 01:31:02;;;;;;;2.20;1.40;;;25.70;60.40;;;;;;219335;1280;24361;-47
2023/07/31 01:36:08;;;;;;;1.30;1.00;;;25.60;60.30;;;;;;219545;1272;22558;-47
2023/07/31 01:41:13;;;;;;;1.10;1.00;;;25.60;60.00;;;;;;219415;1271;22783;-46
2023/07/31 01:46:17;;;;;;;1.10;1.00;;;25.70;59.80;;;;;;219593;1283;24236;-47
2023/07/31 01:51:21;;;;;;;2.30;1.00;;;25.70;59.70;;;;;;219475;1285;22527;-46
2023/07/31 01:56:26;;;;;;;1.20;1.10;;;25.70;59.80;;;;;;219335;1276;24332;-50
2023/07/31 02:01:32;;;;;;;1.70;1.30;;;25.70;59.60;;;;;;219400;1280;22527;-47
2023/07/31 02:06:37;;;;;;;1.10;1.00;;;25.60;59.30;;;;;;219298;1276;22547;-48
2023/07/31 02:11:42;;;;;;;1.30;0.90;;;25.60;59.50;;;;;;219362;1267;22547;-45
2023/07/31 02:16:46;;;;;;;1.40;1.00;;;25.60;59.50;;;;;;219132;1283;298221;-46
2023/07/31 02:21:51;;;;;;;1.40;1.00;;;25.60;59.60;;;;;;219340;1286;22587;-46
2023/07/31 02:26:55;;;;;;;0.90;0.90;;;25.60;59.70;;;;;;219300;1283;22553;-46
2023/07/31 02:31:59;;;;;;;1.00;0.80;;;25.60;59.60;;;;;;219356;1271;22540;-45
2023/07/31 02:37:04;;;;;;;0.80;0.80;;;25.60;59.70;;;;;;219538;1283;24667;-47
2023/07/31 02:42:09;;;;;;;1.30;1.20;;;25.60;59.70;;;;;;219594;1286;22653;-47
2023/07/31 02:47:13;;;;;;;1.10;1.00;;;25.60;59.90;;;;;;219396;1286;22575;-48
2023/07/31 02:52:17;;;;;;;1.00;0.90;;;25.60;60.00;;;;;;219217;1279;22614;-48
2023/07/31 02:57:28;;;;;;;0.70;0.70;;;25.60;59.90;;;;;;219397;1280;22538;-45
2023/07/31 03:02:33;;;;;;;1.10;1.10;;;25.60;59.90;;;;;;219534;1280;25419;-48
2023/07/31 03:07:38;;;;;;;1.40;0.90;;;25.60;59.80;;;;;;219575;1280;22533;-47
2023/07/31 03:12:46;;;;;;;1.00;0.90;;;25.60;60.00;;;;;;219480;1280;25402;-45
2023/07/31 03:17:50;;;;;;;1.50;0.80;;;25.60;59.70;;;;;;219390;1280;22667;-49
2023/07/31 03:22:54;;;;;;;0.90;0.90;;;25.60;59.60;;;;;;219211;1280;22657;-47
2023/07/31 03:27:59;;;;;;;0.50;0.50;;;25.60;59.70;;;;;;219423;1280;22546;-45
2023/07/31 03:33:03;;;;;;;0.70;0.70;;;25.60;59.60;;;;;;219661;1282;23935;-47
2023/07/31 03:38:08;;;;;;;1.40;1.30;;;25.60;59.70;;;;;;219413;1281;22544;-50
2023/07/31 03:43:24;;;;;;;0.80;0.80;;;25.60;59.60;;;;;;219428;1283;22634;-47
2023/07/31 03:48:29;;;;;;;1.70;1.10;;;25.60;59.60;;;;;;219514;1280;23938;-50
2023/07/31 03:53:33;;;;;;;0.90;0.80;;;25.60;59.50;;;;;;219450;1285;24198;-48
2023/07/31 03:58:37;;;;;;;1.20;1.00;;;25.60;59.60;;;;;;219120;1280;22544;-46
2023/07/31 04:03:50;;;;;;;1.50;0.90;;;25.60;59.40;;;;;;219359;1280;24397;-47
2023/07/31 04:08:55;;;;;;;0.80;0.80;;;25.60;59.50;;;;;;219781;1283;22688;-50
2023/07/31 04:14:02;;;;;;;1.40;0.90;;;25.60;59.30;;;;;;219546;1273;22536;-48
2023/07/31 04:19:06;;;;;;;0.90;0.90;;;25.60;59.40;;;;;;219371;1280;22582;-50
2023/07/31 04:24:10;;;;;;;1.00;0.90;;;25.50;59.50;;;;;;219206;1280;22533;-47
2023/07/31 04:29:17;;;;;;;1.00;1.00;;;25.50;59.50;;;;;;219543;1273;22593;-50
2023/07/31 04:34:22;;;;;;;0.90;0.90;;;25.50;59.50;;;;;;219484;1283;22544;-48
2023/07/31 04:39:26;;;;;;;0.80;0.80;;;25.50;59.50;;;;;;219592;1279;22544;-47
2023/07/31 04:44:30;;;;;;;1.10;0.90;;;25.50;59.90;;;;;;219510;1280;22555;-46
2023/07/31 04:49:34;;;;;;;1.40;1.10;;;25.50;59.90;;;;;;219475;1283;22526;-47
2023/07/31 04:54:39;;;;;;;1.30;1.20;;;25.50;59.50;;;;;;219274;1286;22545;-47
2023/07/31 04:59:43;;;;;;;2.80;0.80;;;25.50;59.50;;;;;;219408;1280;22577;-46
2023/07/31 05:04:47;;;;;;;1.20;1.00;;;25.50;59.70;;;;;;219405;1280;22832;-47
2023/07/31 05:09:51;;;;;;;0.90;0.90;;;25.50;59.40;;;;;;219414;1280;23049;-47
2023/07/31 05:14:56;;;;;;;1.90;0.80;;;25.50;59.50;;;;;;219329;1286;24396;-46
2023/07/31 05:20:00;;;;;;;0.90;0.90;;;25.40;59.40;;;;;;219345;1276;22526;-50
2023/07/31 05:25:05;;;;;;;1.20;1.10;;;25.50;59.50;;;;;;219371;1286;25257;-45
2023/07/31 05:30:09;;;;;;;1.30;1.20;;;25.50;59.40;;;;;;219592;1280;24380;-47
2023/07/31 05:35:14;;;;;;;1.20;1.10;;;25.50;59.50;;;;;;219400;1280;25519;-44
2023/07/31 05:40:18;;;;;;;1.00;0.90;;;25.50;59.50;;;;;;219542;1282;22584;-47
2023/07/31 05:45:22;;;;;;;1.30;1.00;;;25.50;59.60;;;;;;219502;1280;25271;-46
2023/07/31 05:50:30;;;;;;;1.30;1.20;;;25.50;59.20;;;;;;219530;1280;22580;-46
2023/07/31 05:55:34;;;;;;;3.30;1.40;;;25.50;59.60;;;;;;219512;1286;22640;-44
2023/07/31 06:00:38;;;;;;;1.30;1.20;;;25.60;59.40;;;;;;219598;1286;23957;-46
2023/07/31 06:05:42;;;;;;;1.20;1.10;;;25.60;59.30;;;;;;219303;1280;22527;-46
2023/07/31 06:10:46;;;;;;;1.20;1.00;;;25.60;60.00;;;;;;219303;1283;22714;-48
2023/07/31 06:15:50;;;;;;;1.20;1.20;;;25.60;59.30;;;;;;219087;1282;22549;-46
2023/07/31 06:20:55;;;;;;;1.20;1.10;;;25.70;59.20;;;;;;219330;1286;22550;-46
2023/07/31 06:26:00;;;;;;;2.10;1.10;;;25.60;59.10;;;;;;219230;1280;24218;-45
2023/07/31 06:31:04;;;;;;;2.10;1.30;;;25.60;59.10;;;;;;219428;1283;22703;-49
2023/07/31 06:36:08;;;;;;;1.70;1.10;;;25.60;59.10;;;;;;219217;1286;25297;-47
2023/07/31 06:41:13;;;;;;;1.30;1.20;;;25.70;59.40;;;;;;219248;1283;24384;-50
2023/07/31 06:46:17;;;;;;;1.30;1.20;;;25.70;59.10;;;;;;219369;1276;25459;-47
2023/07/31 06:51:21;;;;;;;1.30;1.20;;;25.70;59.00;;;;;;219080;1285;25326;-46
2023/07/31 06:56:26;;;;;;;1.20;1.10;;;25.60;59.00;;;;;;219517;1287;24513;-47
2023/07/31 07:01:30;;;;;;;1.40;1.30;;;25.70;59.30;;;;;;219276;1271;25827;-47
2023/07/31 07:06:35;;;;;;;2.10;1.50;;;25.60;59.30;;;;;;219264;1286;26424;-45
2023/07/31 07:11:39;;;;;;;1.50;1.40;;;25.60;59.20;;;;;;219436;1283;22529;-47
2023/07/31 07:16:43;;;;;;;2.70;1.40;;;25.60;59.30;;;;;;219183;1286;22530;-49
2023/07/31 07:21:47;;;;;;;1.40;1.30;;;25.60;59.20;;;;;;219317;1286;25467;-47
2023/07/31 07:26:51;;;;;;;1.60;1.40;;;25.60;59.20;;;;;;219335;1283;22660;-47
2023/07/31 07:31:55;;;;;;;1.60;1.50;;;25.60;59.30;;;;;;219253;1280;22640;-45
2023/07/31 07:37:00;;;;;;;1.40;1.30;;;25.60;59.20;;;;;;219392;1280;24235;-46
2023/07/31 07:42:04;;;;;;;1.60;1.50;;;25.70;59.20;;;;;;219454;1283;22646;-50
2023/07/31 07:47:09;;;;;;;2.20;1.30;;;25.70;59.00;;;;;;219247;1274;24238;-48
2023/07/31 07:52:13;;;;;;;2.10;1.60;;;25.80;59.00;;;;;;219042;1280;23911;-47
2023/07/31 07:57:17;;;;;;;5.50;2.10;;;25.90;58.80;;;;;;219381;1283;23138;-48
2023/07/31 08:02:22;;;;;;;11.10;1.90;;;25.80;59.20;;;;;;219286;1283;24259;-47
2023/07/31 08:07:26;;;;;;;2.10;1.60;;;25.90;60.20;;;;;;219455;1274;22711;-46
2023/07/31 08:12:30;;;;;;;2.40;1.20;;;25.90;59.10;;;;;;219272;1280;24106;-47
2023/07/31 08:17:34;;;;;;;1.70;1.60;;;25.80;59.50;;;;;;219145;1273;25413;-46
2023/07/31 08:22:38;;;;;;;3.00;1.70;;;25.90;59.00;;;;;;219344;1280;22552;-48
2023/07/31 08:27:43;;;;;;;2.00;1.30;;;25.80;58.90;;;;;;219424;1276;22530;-46
2023/07/31 08:32:47;;;;;;;4.70;1.50;;;25.80;58.50;;;;;;219698;1278;26532;-46
2023/07/31 08:37:52;;;;;;;1.80;1.30;;;25.90;58.50;;;;;;219215;1273;24244;-45
2023/07/31 08:42:58;;;;;;;4.10;1.70;;;26.00;58.40;;;;;;219008;1267;25333;-47
2023/07/31 08:48:03;;;;;;;2.20;1.50;;;26.00;58.40;;;;;;219369;1286;22530;-44
2023/07/31 08:53:07;;;;;;;3.20;1.80;;;26.00;58.30;;;;;;219280;1283;22660;-48
2023/07/31 08:58:14;;;;;;;1.70;1.40;;;25.90;58.10;;;;;;219277;1286;24244;-44
2023/07/31 09:03:20;;;;;;;2.90;1.50;;;26.00;58.10;;;;;;219273;1286;25287;-50
2023/07/31 09:08:26;;;;;;;2.10;1.60;;;26.00;58.20;;;;;;219373;1276;24191;-48
2023/07/31 09:13:31;;;;;;;3.70;1.40;;;26.00;58.10;;;;;;219224;1283;22613;-45
2023/07/31 09:18:54;;;;;;;2.90;1.20;;;26.00;58.00;;;;;;219205;1283;23193;-49
2023/07/31 09:23:58;;;;;;;2.20;1.40;;;26.00;58.00;;;;;;219286;1280;23925;-50
2023/07/31 09:29:19;;;;;;;1.70;1.50;;;25.90;57.90;;;;;;219111;1280;22971;-49
2023/07/31 09:34:38;;;;;;;2.50;1.90;;;26.00;58.10;;;;;;219471;1283;22565;-49
2023/07/31 09:39:47;;;;;;;2.70;1.30;;;25.90;57.80;;;;;;219638;1280;24176;-48
2023/07/31 09:44:51;;;;;;;1.50;1.40;;;25.90;58.40;;;;;;219488;1283;22571;-47
2023/07/31 09:49:55;;;;;;;3.30;1.90;;;26.00;57.30;;;;;;219351;1274;22539;-46
2023/07/31 09:55:00;;;;;;;1.80;1.20;;;25.90;57.50;;;;;;219709;1283;22547;-47
2023/07/31 10:00:09;;;;;;;2.10;1.60;;;25.80;57.40;;;;;;219344;1280;22670;-49
2023/07/31 10:05:19;;;;;;;3.60;1.60;;;25.80;56.90;;;;;;219497;1273;22527;-45
2023/07/31 10:10:25;;;;;;;2.20;1.70;;;25.70;57.10;;;;;;219501;1283;23425;-45
2023/07/31 10:15:30;;;;;;;5.30;2.00;;;25.70;57.10;;;;;;219469;1280;24269;-49
2023/07/31 10:20:36;;;;;;;2.90;1.60;;;25.70;56.60;;;;;;219520;1274;25607;-45
2023/07/31 10:25:42;;;;;;;4.10;1.90;;;25.70;56.40;;;;;;219558;1265;27279;-49
2023/07/31 10:30:46;;;;;;;3.90;1.60;;;25.70;56.60;;;;;;219497;1271;22834;-47
2023/07/31 10:35:53;;;;;;;2.30;1.50;;;25.70;56.40;;;;;;219345;1280;25620;-47
2023/07/31 10:41:09;;;;;;;2.10;1.70;;;25.70;56.40;;;;;;219377;1283;25356;-46
2023/07/31 10:46:14;;;;;;;1.70;1.40;;;25.60;56.20;;;;;;219480;1283;25488;-48
2023/07/31 10:51:22;;;;;;;2.20;1.50;;;25.60;55.50;;;;;;219456;1283;25536;-49
2023/07/31 10:56:26;;;;;;;2.30;1.40;;;25.40;55.10;;;;;;219412;1283;22539;-47
2023/07/31 11:01:57;;;;;;;4.20;1.40;;;25.40;54.90;;;;;;219333;1280;24349;-48
2023/07/31 11:07:06;;;;;;;2.00;1.60;;;25.40;55.00;;;;;;219517;1283;25813;-49
2023/07/31 11:12:11;;;;;;;4.50;1.40;;;25.30;55.00;;;;;;219497;1283;22649;-47
2023/07/31 11:17:24;;;;;;;2.60;1.60;;;25.30;54.80;;;;;;219390;1282;22553;-48
2023/07/31 11:22:30;;;;;;;3.40;1.40;;;25.20;55.40;;;;;;219447;1264;24238;-47
2023/07/31 11:27:40;;;;;;;2.40;1.30;;;25.20;55.30;;;;;;219596;1280;24256;-46
2023/07/31 11:32:54;;;;;;;;;;;;;;;;;;;;;
2023/07/31 11:38:00;;;;;;;1.50;1.40;;;25.20;55.30;;;;;;219273;1286;22658;-46
2023/07/31 11:43:05;;;;;;;1.60;1.50;;;25.20;55.00;;;;;;219560;1283;25433;-46
2023/07/31 11:48:09;;;;;;;1.60;1.30;;;25.20;54.90;;;;;;219437;1287;23185;-46
2023/07/31 11:53:14;;;;;;;2.30;1.30;;;25.20;54.90;;;;;;219536;1286;22536;-45
2023/07/31 11:58:20;;;;;;;1.70;1.60;;;25.20;55.50;;;;;;219456;1272;25313;-44
2023/07/31 12:03:24;;;;;;;3.80;1.70;;;25.10;55.10;;;;;;219433;1280;22534;-46
2023/07/31 12:08:29;;;;;;;1.60;1.50;;;25.20;55.10;;;;;;219435;1283;22540;-45
2023/07/31 12:13:35;;;;;;;1.90;1.80;;;25.20;55.20;;;;;;219485;1283;24330;-48
2023/07/31 12:18:39;;;;;;;7.50;2.40;;;25.10;54.80;;;;;;219496;1280;24258;-49
2023/07/31 12:23:44;;;;;;;5.00;2.10;;;25.00;54.70;;;;;;219485;1274;24448;-44
2023/07/31 12:28:50;;;;;;;3.50;3.00;;;25.30;54.70;;;;;;219464;1283;25317;-45
2023/07/31 12:33:55;;;;;;;3.50;2.60;;;25.40;54.50;;;;;;219440;1283;22538;-48
2023/07/31 12:38:59;;;;;;;2.30;2.10;;;25.50;54.50;;;;;;219471;1286;22791;-46
2023/07/31 12:44:04;;;;;;;2.10;2.00;;;25.50;54.50;;;;;;219423;1276;25236;-47
2023/07/31 12:49:09;;;;;;;2.20;2.00;;;25.60;54.70;;;;;;219495;1283;24221;-43
2023/07/31 12:54:13;;;;;;;2.20;1.90;;;25.60;54.70;;;;;;219415;1286;24086;-46
2023/07/31 12:59:17;;;;;;;2.60;1.80;;;25.60;54.80;;;;;;219512;1280;22622;-46
2023/07/31 13:04:21;;;;;;;3.70;1.90;;;25.60;55.00;;;;;;219420;1286;22529;-47
2023/07/31 13:09:26;;;;;;;1.90;1.80;;;25.70;55.10;;;;;;219367;1280;25935;-46
2023/07/31 13:14:31;;;;;;;2.90;1.90;;;25.70;55.00;;;;;;219428;1286;25366;-45
2023/07/31 13:19:35;;;;;;;3.00;1.60;;;25.70;55.20;;;;;;219429;1283;24199;-45
2023/07/31 13:24:40;;;;;;;1.90;1.70;;;25.60;55.10;;;;;;219397;1286;22540;-45
2023/07/31 13:29:45;;;;;;;2.70;2.50;;;25.60;55.10;;;;;;219291;1287;22537;-47
2023/07/31 13:34:49;;;;;;;2.40;1.80;;;25.70;55.40;;;;;;219292;1287;22652;-47
2023/07/31 13:39:53;;;;;;;2.70;2.00;;;25.70;55.40;;;;;;219493;1283;25312;-45
2023/07/31 13:44:59;;;;;;;4.30;2.30;;;25.70;55.20;;;;;;219475;1280;22533;-47
2023/07/31 13:50:03;;;;;;;246.30;221.40;;;25.80;55.30;;;;;;219423;1286;22562;-47
2023/07/31 13:55:08;;;;;;;130.90;117.60;;;26.00;55.30;;;;;;219405;1285;25248;-47
2023/07/31 14:00:13;;;;;;;75.10;67.60;;;26.00;55.40;;;;;;219236;1281;22633;-47
2023/07/31 14:05:17;;;;;;;57.30;51.40;;;26.00;55.60;;;;;;219409;1283;25689;-45
2023/07/31 14:10:21;;;;;;;56.00;50.20;;;26.00;55.50;;;;;;219382;1283;23978;-47
2023/07/31 14:15:25;;;;;;;48.80;43.90;;;26.00;55.60;;;;;;219105;1283;445406;-45
2023/07/31 14:20:30;;;;;;;47.60;42.70;;;26.00;55.40;;;;;;219434;1273;22616;-50
2023/07/31 14:25:34;;;;;;;45.30;40.80;;;26.10;55.50;;;;;;219323;1286;25599;-50
2023/07/31 14:30:38;;;;;;;38.00;34.40;;;26.10;55.30;;;;;;219519;1283;23921;-47
2023/07/31 14:35:42;;;;;;;40.60;36.50;;;26.00;55.20;;;;;;219472;1286;22805;-47
2023/07/31 14:40:47;;;;;;;37.30;33.70;;;26.10;55.40;;;;;;219184;1280;24103;-46
2023/07/31 14:45:53;;;;;;;34.00;30.30;;;26.00;55.40;;;;;;219304;1283;24279;-45
2023/07/31 14:50:58;;;;;;;31.80;28.70;;;26.00;55.50;;;;;;219416;1283;24237;-48
2023/07/31 14:56:03;;;;;;;28.10;25.40;;;25.90;55.50;;;;;;219410;1283;22530;-46
2023/07/31 15:01:07;;;;;;;27.20;24.70;;;25.90;55.50;;;;;;219453;1286;24228;-48
2023/07/31 15:06:12;;;;;;;25.00;22.50;;;26.00;55.50;;;;;;219143;1280;22532;-46
2023/07/31 15:11:18;;;;;;;23.00;20.80;;;26.00;55.30;;;;;;219423;1277;23029;-53
2023/07/31 15:16:22;;;;;;;21.90;19.70;;;26.00;55.30;;;;;;219267;1285;24231;-47
2023/07/31 15:21:26;;;;;;;21.50;19.30;;;26.10;55.10;;;;;;219258;1284;24225;-47
2023/07/31 15:26:41;;;;;;;22.20;19.80;;;26.10;55.20;;;;;;219031;1286;22599;-46
2023/07/31 15:31:48;;;;;;;18.80;17.20;;;26.10;55.30;;;;;;219498;1280;25306;-46
2023/07/31 15:36:53;;;;;;;19.60;17.70;;;26.10;55.30;;;;;;219211;1279;23045;-47
2023/07/31 15:41:58;;;;;;;15.00;13.60;;;26.00;55.40;;;;;;219275;1264;25353;-44
2023/07/31 15:47:02;;;;;;;16.30;14.60;;;26.00;55.50;;;;;;219333;1283;24218;-46
2023/07/31 15:52:07;;;;;;;13.90;12.60;;;26.00;55.50;;;;;;219271;1277;22543;-48
2023/07/31 15:57:11;;;;;;;14.70;13.20;;;26.00;55.40;;;;;;219227;1283;22664;-46
2023/07/31 16:02:15;;;;;;;12.80;11.70;;;26.00;55.80;;;;;;219261;1286;22530;-50
2023/07/31 16:07:21;;;;;;;10.80;9.90;;;26.00;55.30;;;;;;219402;1280;22786;-47
2023/07/31 16:12:26;;;;;;;10.40;9.40;;;26.10;55.40;;;;;;219410;1281;24117;-48
2023/07/31 16:17:30;;;;;;;9.40;8.60;;;26.20;55.30;;;;;;219336;1281;25303;-46
2023/07/31 16:22:35;;;;;;;8.90;7.60;;;26.10;55.30;;;;;;219369;1284;22552;-45
2023/07/31 16:27:40;;;;;;;11.70;9.10;;;26.10;55.30;;;;;;219485;1283;24269;-46
2023/07/31 16:32:46;;;;;;;15.90;9.70;;;26.10;55.60;;;;;;219393;1283;22680;-47
2023/07/31 16:37:51;;;;;;;14.20;8.20;;;26.10;58.30;;;;;;219530;1285;22530;-47
2023/07/31 16:42:55;;;;;;;10.40;8.10;;;26.10;57.80;;;;;;219320;1285;24221;-46
2023/07/31 16:48:01;;;;;;;9.90;7.20;;;26.10;56.90;;;;;;219253;1286;24253;-48
2023/07/31 16:53:05;;;;;;;9.70;6.90;;;26.20;56.90;;;;;;219621;1277;22559;-47
2023/07/31 16:58:09;;;;;;;8.00;5.60;;;26.00;56.80;;;;;;219311;1279;22546;-46
2023/07/31 17:03:14;;;;;;;8.80;6.20;;;26.00;56.70;;;;;;219117;1279;22539;-47
2023/07/31 17:08:18;;;;;;;7.60;5.50;;;26.00;56.80;;;;;;219006;1287;23995;-48
2023/07/31 17:13:22;;;;;;;5.30;4.80;;;26.00;56.80;;;;;;219157;1284;24225;-46
2023/07/31 17:18:26;;;;;;;5.60;5.00;;;26.00;56.40;;;;;;219417;1283;22584;-45
2023/07/31 17:23:31;;;;;;;5.40;4.90;;;26.00;56.50;;;;;;219283;1286;22546;-50
2023/07/31 17:28:35;;;;;;;5.80;4.70;;;26.10;56.40;;;;;;219568;1287;25430;-48
2023/07/31 17:33:40;;;;;;;4.70;4.30;;;26.00;55.80;;;;;;219579;1286;22685;-46
2023/07/31 17:38:45;;;;;;;6.20;4.50;;;26.00;56.30;;;;;;219449;1286;25500;-48
2023/07/31 17:43:50;;;;;;;5.70;4.50;;;26.00;56.30;;;;;;219624;1282;22658;-46
2023/07/31 17:48:54;;;;;;;4.00;3.60;;;26.00;56.10;;;;;;219561;1287;22551;-47
2023/07/31 17:54:00;;;;;;;4.10;3.70;;;26.00;56.50;;;;;;219542;1284;25341;-49
2023/07/31 17:59:06;;;;;;;3.90;3.60;;;25.90;56.00;;;;;;219558;1283;22739;-50
2023/07/31 18:04:10;;;;;;;3.70;3.30;;;25.90;56.20;;;;;;219319;1285;22618;-48
2023/07/31 18:09:15;;;;;;;3.80;3.40;;;25.90;55.80;;;;;;219364;1286;24291;-48
2023/07/31 18:14:24;;;;;;;7.50;3.70;;;25.90;56.10;;;;;;219609;1287;25342;-46
2023/07/31 18:19:30;;;;;;;4.00;3.60;;;25.90;55.60;;;;;;219445;1279;23170;-48
2023/07/31 18:24:37;;;;;;;3.20;2.90;;;25.80;55.80;;;;;;219522;1286;23109;-47
2023/07/31 18:29:42;;;;;;;4.50;2.90;;;25.80;55.60;;;;;;219475;1287;23155;-46
2023/07/31 18:34:47;;;;;;;3.40;3.10;;;25.80;55.50;;;;;;219460;1287;22672;-47
2023/07/31 18:39:52;;;;;;;2.80;2.60;;;25.90;55.30;;;;;;219635;1280;24301;-48
2023/07/31 18:44:57;;;;;;;5.50;3.20;;;25.80;55.20;;;;;;219417;1288;22540;-45
2023/07/31 18:50:02;;;;;;;2.70;2.50;;;25.80;55.20;;;;;;219403;1284;22543;-48
2023/07/31 18:55:08;;;;;;;2.70;2.50;;;25.80;55.20;;;;;;219480;1288;22682;-48
2023/07/31 19:00:12;;;;;;;3.30;3.00;;;25.80;55.20;;;;;;219487;1283;22532;-47
2023/07/31 19:05:18;;;;;;;2.90;2.50;;;25.80;55.20;;;;;;219403;1283;22553;-49
2023/07/31 19:10:23;;;;;;;3.50;2.80;;;25.70;55.10;;;;;;219583;1283;22540;-45
2023/07/31 19:15:27;;;;;;;2.70;2.50;;;25.80;55.40;;;;;;219432;1283;24227;-49
2023/07/31 19:20:32;;;;;;;3.80;2.70;;;25.70;55.30;;;;;;219440;1276;22681;-47
2023/07/31 19:25:37;;;;;;;4.70;3.00;;;25.80;55.30;;;;;;219376;1280;25236;-45
2023/07/31 19:30:42;;;;;;;3.10;2.30;;;25.80;55.70;;;;;;219367;1283;24212;-47
2023/07/31 19:35:58;;;;;;;2.70;2.50;;;25.80;55.30;;;;;;219517;1285;25499;-48
2023/07/31 19:41:03;;;;;;;4.20;2.50;;;25.70;55.60;;;;;;219510;1283;24250;-47
2023/07/31 19:46:07;;;;;;;2.80;2.50;;;25.70;55.40;;;;;;219475;1283;22649;-46
2023/07/31 19:51:12;;;;;;;3.80;2.70;;;25.70;55.20;;;;;;219459;1284;22795;-47
2023/07/31 19:56:17;;;;;;;2.70;2.50;;;25.70;55.60;;;;;;219574;1283;22537;-47
2023/07/31 20:01:24;;;;;;;2.60;2.40;;;25.70;55.80;;;;;;219300;1280;22539;-45
2023/07/31 20:06:29;;;;;;;4.50;2.50;;;25.70;55.60;;;;;;219316;1274;24977;-46
2023/07/31 20:11:34;;;;;;;2.90;2.60;;;25.70;55.80;;;;;;219432;1280;25409;-47
2023/07/31 20:16:40;;;;;;;5.20;2.60;;;25.70;56.10;;;;;;219589;1287;22553;-46
2023/07/31 20:21:46;;;;;;;2.90;2.60;;;25.70;56.00;;;;;;219549;1283;25353;-48
2023/07/31 20:26:50;;;;;;;2.80;2.60;;;25.70;55.70;;;;;;219436;1283;22687;-47
2023/07/31 20:31:56;;;;;;;3.10;2.50;;;25.70;55.70;;;;;;219332;1285;25359;-48
2023/07/31 20:37:01;;;;;;;3.00;2.80;;;25.70;55.90;;;;;;219478;1280;23908;-47
2023/07/31 20:42:06;;;;;;;9.30;2.90;;;25.70;55.80;;;;;;219335;1280;22572;-50
2023/07/31 20:47:11;;;;;;;5.30;2.60;;;25.60;56.20;;;;;;219526;1273;24371;-47
2023/07/31 20:52:15;;;;;;;14.90;3.60;;;25.70;56.60;;;;;;219349;1280;22563;-45
2023/07/31 20:57:20;;;;;;;14.10;2.90;;;25.70;57.10;;;;;;218971;1287;24447;-47
2023/07/31 21:02:25;;;;;;;8.20;3.00;;;25.70;58.50;;;;;;219643;1280;23908;-47
2023/07/31 21:07:29;;;;;;;8.60;2.70;;;25.50;57.30;;;;;;219667;1280;25422;-49
2023/07/31 21:12:34;;;;;;;5.30;2.80;;;25.40;57.50;;;;;;219437;1274;22546;-47
2023/07/31 21:17:41;;;;;;;4.50;2.60;;;25.30;57.20;;;;;;219412;1287;24218;-46
2023/07/31 21:22:45;;;;;;;5.40;2.90;;;25.10;57.60;;;;;;219491;1285;22664;-45
2023/07/31 21:27:49;;;;;;;5.40;2.60;;;25.00;57.70;;;;;;219398;1286;22543;-52
2023/07/31 21:32:54;;;;;;;4.90;2.80;;;24.90;58.70;;;;;;219196;1280;23944;-48
2023/07/31 21:37:58;;;;;;;7.20;2.90;;;25.00;58.70;;;;;;219190;1277;24207;-45
2023/07/31 21:43:03;;;;;;;8.30;3.50;;;25.20;58.30;;;;;;219400;1283;22590;-48
2023/07/31 21:48:07;;;;;;;3.40;2.80;;;25.40;57.70;;;;;;219334;1283;22759;-48
2023/07/31 21:53:11;;;;;;;3.90;2.60;;;25.40;58.00;;;;;;219046;1280;22537;-47
2023/07/31 21:58:15;;;;;;;10.40;3.60;;;25.50;58.30;;;;;;219218;1283;24418;-47
2023/07/31 22:03:20;;;;;;;3.80;2.80;;;25.50;58.20;;;;;;219432;1280;22560;-52
2023/07/31 22:08:24;;;;;;;4.20;2.70;;;25.60;58.30;;;;;;219448;1279;24449;-50
2023/07/31 22:13:28;;;;;;;4.20;2.70;;;25.60;58.10;;;;;;219108;1280;22555;-49
2023/07/31 22:18:33;;;;;;;3.10;2.50;;;25.60;58.60;;;;;;219195;1283;22564;-50
2023/07/31 22:23:37;;;;;;;6.70;2.90;;;25.60;58.70;;;;;;219535;1280;22637;-52
2023/07/31 22:28:41;;;;;;;4.50;2.30;;;25.60;58.40;;;;;;219614;1274;22551;-53
2023/07/31 22:33:46;;;;;;;3.90;2.80;;;25.60;58.40;;;;;;219404;1285;24332;-54
2023/07/31 22:38:50;;;;;;;7.40;3.10;;;25.50;58.40;;;;;;219342;1286;22550;-52
2023/07/31 22:43:54;;;;;;;2.90;2.40;;;25.50;58.50;;;;;;219251;1283;22620;-54
2023/07/31 22:48:59;;;;;;;4.40;3.00;;;25.40;58.50;;;;;;219440;1280;23174;-54
2023/07/31 22:54:03;;;;;;;2.80;2.50;;;25.40;58.50;;;;;;219312;1275;22533;-52
2023/07/31 22:59:07;;;;;;;3.40;2.90;;;25.40;58.30;;;;;;219506;1280;25412;-53
2023/07/31 23:04:12;;;;;;;2.90;2.50;;;25.40;58.60;;;;;;219325;1282;22535;-50
2023/07/31 23:09:16;;;;;;;6.50;3.70;;;25.50;58.30;;;;;;219663;1283;22553;-50
2023/07/31 23:14:20;;;;;;;3.70;3.10;;;25.40;58.40;;;;;;219381;1271;22548;-51
2023/07/31 23:19:25;;;;;;;3.00;2.20;;;25.40;58.40;;;;;;219487;1280;22550;-50
2023/07/31 23:24:29;;;;;;;6.10;2.50;;;25.50;59.00;;;;;;219665;1273;23991;-50
2023/07/31 23:29:35;;;;;;;3.40;2.40;;;25.70;58.80;;;;;;219363;1283;22534;-50
2023/07/31 23:34:40;;;;;;;5.30;2.50;;;25.60;59.30;;;;;;219377;1272;22553;-50
2023/07/31 23:39:44;;;;;;;3.00;2.70;;;25.70;58.50;;;;;;219649;1286;23942;-50
2023/07/31 23:44:51;;;;;;;2.70;2.40;;;25.70;58.30;;;;;;219458;1283;22541;-49
2023/07/31 23:50:13;;;;;;;3.00;2.70;;;25.70;58.40;;;;;;219100;1283;22533;-51
2023/07/31 23:55:18;;;;;;;3.40;2.30;;;25.60;58.00;;;;;;220035;1286;24698;-49
